Whitburn, United Kingdom
Current Conditions -  °F | °C
As of 1:20 AM on Tuesday 21 Oct 2014 (Local Time) from EGPH Reporting Station
Light Rain Light Rain  
Wind Chill: 13°   Ceiling: Unl
Heat Index: 13°   Visibility: 6mi
Dew Point: 11°   Wind: 16mph
Humidity: 88%   Direction: 200°SSW
Pressure: 29.29"   Gusts: NA
Location:  55.87°N, 3.68°W
Report Text: EGPH 210020Z 20014KT 9999 -RA FEW017TCU SCT043 13/11 Q0992
Loading
Personal Weather Stations






























Interactive Weather Map
Tropical Storm Tracking
New forecast layout! Learn more

10-Day Weather Forecast

Advertisements
Track Severe Weather on mobile